Lucky Maccamp, Wyoming
Current Conditions -  °F | °C
As of 8:53 AM on Sunday 21 Dec 2014 (Local Time) from KLND Reporting Station
Clear Clear  
Wind Chill: 26°   Ceiling: Unl
Heat Index: 26°   Visibility: 10mi
Dew Point: 17°   Wind: 0mph
Humidity: 69%   Direction: NA
Pressure: 29.56"   Gusts: NA
Location:  43.1005°N, 108.934°W
Report Text: KLND 211553Z AUTO 00000KT 10SM CLR M03/M08 A2956 RMK AO2 SLP050 T10331083
Loading
Personal Weather Stations






























Interactive Weather Map New forecast layout! Learn more

10-Day Weather Forecast

Advertisements
Track Severe Weather on mobile